sensor_id;sensor_type;location;lat;lon;timestamp;temperature;humidity
7196;DHT22;3639;51.308;5.624;2022-10-31T00:02:22;13.50;99.90
7196;DHT22;3639;51.308;5.624;2022-10-31T00:04:48;13.50;99.90
7196;DHT22;3639;51.308;5.624;2022-10-31T00:07:13;13.50;99.90
7196;DHT22;3639;51.308;5.624;2022-10-31T00:09:39;13.50;99.90
7196;DHT22;3639;51.308;5.624;2022-10-31T00:12:04;13.50;99.90
7196;DHT22;3639;51.308;5.624;2022-10-31T00:14:30;13.50;99.90
7196;DHT22;3639;51.308;5.624;2022-10-31T00:16:56;13.50;99.90
7196;DHT22;3639;51.308;5.624;2022-10-31T00:19:21;13.40;99.90
7196;DHT22;3639;51.308;5.624;2022-10-31T00:21:47;13.40;99.90
7196;DHT22;3639;51.308;5.624;2022-10-31T00:24:12;13.40;99.90
7196;DHT22;3639;51.308;5.624;2022-10-31T00:26:38;13.40;99.90
7196;DHT22;3639;51.308;5.624;2022-10-31T00:29:04;13.40;99.90
7196;DHT22;3639;51.308;5.624;2022-10-31T00:31:29;13.40;99.90
7196;DHT22;3639;51.308;5.624;2022-10-31T00:33:55;13.40;99.90
7196;DHT22;3639;51.308;5.624;2022-10-31T00:36:21;13.50;99.90
7196;DHT22;3639;51.308;5.624;2022-10-31T00:38:47;13.50;99.90
7196;DHT22;3639;51.308;5.624;2022-10-31T00:41:14;13.50;99.90
7196;DHT22;3639;51.308;5.624;2022-10-31T00:43:41;13.50;99.90
7196;DHT22;3639;51.308;5.624;2022-10-31T00:46:06;13.50;99.90
7196;DHT22;3639;51.308;5.624;2022-10-31T00:48:32;13.40;99.90
7196;DHT22;3639;51.308;5.624;2022-10-31T00:50:58;13.40;99.90
7196;DHT22;3639;51.308;5.624;2022-10-31T00:53:23;13.40;99.90
7196;DHT22;3639;51.308;5.624;2022-10-31T00:55:49;13.40;99.90
7196;DHT22;3639;51.308;5.624;2022-10-31T00:58:15;13.40;99.90
7196;DHT22;3639;51.308;5.624;2022-10-31T01:00:40;13.40;99.90
7196;DHT22;3639;51.308;5.624;2022-10-31T01:03:06;13.30;99.90
7196;DHT22;3639;51.308;5.624;2022-10-31T01:05:32;13.30;99.90
7196;DHT22;3639;51.308;5.624;2022-10-31T01:07:58;13.30;99.90
7196;DHT22;3639;51.308;5.624;2022-10-31T01:10:24;13.30;99.90
7196;DHT22;3639;51.308;5.624;2022-10-31T01:12:49;13.30;99.90
7196;DHT22;3639;51.308;5.624;2022-10-31T01:15:20;13.20;99.90
7196;DHT22;3639;51.308;5.624;2022-10-31T01:17:47;13.30;99.90
7196;DHT22;3639;51.308;5.624;2022-10-31T01:20:13;13.30;99.90
7196;DHT22;3639;51.308;5.624;2022-10-31T01:22:39;13.30;99.90
7196;DHT22;3639;51.308;5.624;2022-10-31T01:25:06;13.20;99.90
7196;DHT22;3639;51.308;5.624;2022-10-31T01:27:32;13.20;99.90
7196;DHT22;3639;51.308;5.624;2022-10-31T01:29:58;13.10;99.90
7196;DHT22;3639;51.308;5.624;2022-10-31T01:32:23;13.20;99.90
7196;DHT22;3639;51.308;5.624;2022-10-31T01:34:49;13.10;99.90
7196;DHT22;3639;51.308;5.624;2022-10-31T01:37:15;13.00;99.90
7196;DHT22;3639;51.308;5.624;2022-10-31T01:39:41;12.90;99.90
7196;DHT22;3639;51.308;5.624;2022-10-31T01:42:06;12.80;99.90
7196;DHT22;3639;51.308;5.624;2022-10-31T01:47:21;12.80;99.90
7196;DHT22;3639;51.308;5.624;2022-10-31T01:49:51;12.80;99.90
7196;DHT22;3639;51.308;5.624;2022-10-31T01:52:27;12.70;99.90
7196;DHT22;3639;51.308;5.624;2022-10-31T01:54:59;12.70;99.90
7196;DHT22;3639;51.308;5.624;2022-10-31T01:57:26;12.70;99.90
7196;DHT22;3639;51.308;5.624;2022-10-31T01:59:57;12.70;99.90
7196;DHT22;3639;51.308;5.624;2022-10-31T02:02:25;12.70;99.90
7196;DHT22;3639;51.308;5.624;2022-10-31T02:04:53;12.60;99.90
7196;DHT22;3639;51.308;5.624;2022-10-31T02:07:30;12.60;99.90
7196;DHT22;3639;51.308;5.624;2022-10-31T02:09:57;12.60;99.90
7196;DHT22;3639;51.308;5.624;2022-10-31T02:12:23;12.50;99.90
7196;DHT22;3639;51.308;5.624;2022-10-31T02:14:49;12.50;99.90
7196;DHT22;3639;51.308;5.624;2022-10-31T02:17:16;12.50;99.90
7196;DHT22;3639;51.308;5.624;2022-10-31T02:20:08;12.40;99.90
7196;DHT22;3639;51.308;5.624;2022-10-31T02:34:19;12.30;99.90
7196;DHT22;3639;51.308;5.624;2022-10-31T02:37:05;12.30;99.90
7196;DHT22;3639;51.308;5.624;2022-10-31T02:42:09;12.30;99.90
7196;DHT22;3639;51.308;5.624;2022-10-31T02:44:44;12.30;99.90
7196;DHT22;3639;51.308;5.624;2022-10-31T02:47:26;12.30;99.90
7196;DHT22;3639;51.308;5.624;2022-10-31T02:50:00;12.30;99.90
7196;DHT22;3639;51.308;5.624;2022-10-31T02:52:28;12.30;99.90
7196;DHT22;3639;51.308;5.624;2022-10-31T02:54:54;12.20;99.90
7196;DHT22;3639;51.308;5.624;2022-10-31T02:57:25;12.20;99.90
7196;DHT22;3639;51.308;5.624;2022-10-31T03:00:00;12.20;99.90
7196;DHT22;3639;51.308;5.624;2022-10-31T03:02:53;12.20;99.90
7196;DHT22;3639;51.308;5.624;2022-10-31T03:10:59;12.20;99.90
7196;DHT22;3639;51.308;5.624;2022-10-31T03:21:21;12.20;99.90
7196;DHT22;3639;51.308;5.624;2022-10-31T03:23:50;12.20;99.90
7196;DHT22;3639;51.308;5.624;2022-10-31T03:26:17;12.20;99.90
7196;DHT22;3639;51.308;5.624;2022-10-31T03:28:52;12.10;99.90
7196;DHT22;3639;51.308;5.624;2022-10-31T03:31:23;12.10;99.90
7196;DHT22;3639;51.308;5.624;2022-10-31T03:33:51;12.10;99.90
7196;DHT22;3639;51.308;5.624;2022-10-31T03:36:18;12.00;99.90
7196;DHT22;3639;51.308;5.624;2022-10-31T03:38:45;12.00;99.90
7196;DHT22;3639;51.308;5.624;2022-10-31T03:41:17;12.00;99.90
7196;DHT22;3639;51.308;5.624;2022-10-31T03:43:52;11.90;99.90
7196;DHT22;3639;51.308;5.624;2022-10-31T03:46:19;11.90;99.90
7196;DHT22;3639;51.308;5.624;2022-10-31T03:48:45;11.80;99.90
7196;DHT22;3639;51.308;5.624;2022-10-31T03:51:22;11.80;99.90
7196;DHT22;3639;51.308;5.624;2022-10-31T03:54:08;11.80;99.90
7196;DHT22;3639;51.308;5.624;2022-10-31T03:56:37;11.80;99.90
7196;DHT22;3639;51.308;5.624;2022-10-31T03:59:23;11.80;99.90
7196;DHT22;3639;51.308;5.624;2022-10-31T04:01:53;11.80;99.90
7196;DHT22;3639;51.308;5.624;2022-10-31T04:04:20;11.80;99.90
7196;DHT22;3639;51.308;5.624;2022-10-31T04:06:47;11.80;99.90
7196;DHT22;3639;51.308;5.624;2022-10-31T04:09:14;11.90;99.90
7196;DHT22;3639;51.308;5.624;2022-10-31T04:11:53;11.90;99.90
7196;DHT22;3639;51.308;5.624;2022-10-31T04:14:22;11.90;99.90
7196;DHT22;3639;51.308;5.624;2022-10-31T04:16:49;11.90;99.90
7196;DHT22;3639;51.308;5.624;2022-10-31T04:19:15;11.90;99.90
7196;DHT22;3639;51.308;5.624;2022-10-31T04:21:41;12.00;99.90
7196;DHT22;3639;51.308;5.624;2022-10-31T04:24:09;12.00;99.90
7196;DHT22;3639;51.308;5.624;2022-10-31T04:26:35;12.00;99.90
7196;DHT22;3639;51.308;5.624;2022-10-31T04:29:00;12.00;99.90
7196;DHT22;3639;51.308;5.624;2022-10-31T04:31:26;12.00;99.90
7196;DHT22;3639;51.308;5.624;2022-10-31T04:33:52;12.10;99.90
7196;DHT22;3639;51.308;5.624;2022-10-31T04:36:18;12.10;99.90
7196;DHT22;3639;51.308;5.624;2022-10-31T04:38:43;12.10;99.90
7196;DHT22;3639;51.308;5.624;2022-10-31T04:41:09;12.10;99.90
7196;DHT22;3639;51.308;5.624;2022-10-31T04:43:35;12.10;99.90
7196;DHT22;3639;51.308;5.624;2022-10-31T04:46:00;12.10;99.90
7196;DHT22;3639;51.308;5.624;2022-10-31T04:48:26;12.10;99.90
7196;DHT22;3639;51.308;5.624;2022-10-31T04:50:52;12.10;99.90
7196;DHT22;3639;51.308;5.624;2022-10-31T04:53:17;12.10;99.90
7196;DHT22;3639;51.308;5.624;2022-10-31T04:55:43;12.10;99.90
7196;DHT22;3639;51.308;5.624;2022-10-31T04:58:08;12.10;99.90
7196;DHT22;3639;51.308;5.624;2022-10-31T05:00:34;12.00;99.90
7196;DHT22;3639;51.308;5.624;2022-10-31T05:03:00;12.00;99.90
7196;DHT22;3639;51.308;5.624;2022-10-31T05:05:30;12.00;99.90
7196;DHT22;3639;51.308;5.624;2022-10-31T05:07:56;12.00;99.90
7196;DHT22;3639;51.308;5.624;2022-10-31T05:10:25;11.90;99.90
7196;DHT22;3639;51.308;5.624;2022-10-31T05:12:56;11.90;99.90
7196;DHT22;3639;51.308;5.624;2022-10-31T05:15:23;11.80;99.90
7196;DHT22;3639;51.308;5.624;2022-10-31T05:17:50;11.80;99.90
7196;DHT22;3639;51.308;5.624;2022-10-31T05:20:18;11.70;99.90
7196;DHT22;3639;51.308;5.624;2022-10-31T05:22:48;11.70;99.90
7196;DHT22;3639;51.308;5.624;2022-10-31T05:25:15;11.60;99.90
7196;DHT22;3639;51.308;5.624;2022-10-31T05:27:42;11.60;99.90
7196;DHT22;3639;51.308;5.624;2022-10-31T05:30:10;11.60;99.90
7196;DHT22;3639;51.308;5.624;2022-10-31T05:32:40;11.60;99.90
7196;DHT22;3639;51.308;5.624;2022-10-31T05:35:07;11.50;99.90
7196;DHT22;3639;51.308;5.624;2022-10-31T05:37:37;11.50;99.90
7196;DHT22;3639;51.308;5.624;2022-10-31T05:40:04;11.40;99.90
7196;DHT22;3639;51.308;5.624;2022-10-31T05:42:30;11.40;99.90
7196;DHT22;3639;51.308;5.624;2022-10-31T05:44:55;11.40;99.90
7196;DHT22;3639;51.308;5.624;2022-10-31T05:47:21;11.40;99.90
7196;DHT22;3639;51.308;5.624;2022-10-31T05:49:46;11.40;99.90
7196;DHT22;3639;51.308;5.624;2022-10-31T05:52:12;11.40;99.90
7196;DHT22;3639;51.308;5.624;2022-10-31T05:54:37;11.30;99.90
7196;DHT22;3639;51.308;5.624;2022-10-31T05:57:03;11.30;99.90
7196;DHT22;3639;51.308;5.624;2022-10-31T05:59:29;11.30;99.90
7196;DHT22;3639;51.308;5.624;2022-10-31T06:01:54;11.30;99.90
7196;DHT22;3639;51.308;5.624;2022-10-31T06:04:20;11.20;99.90
7196;DHT22;3639;51.308;5.624;2022-10-31T06:06:45;11.20;99.90
7196;DHT22;3639;51.308;5.624;2022-10-31T06:09:11;11.20;99.90
7196;DHT22;3639;51.308;5.624;2022-10-31T06:11:37;11.10;99.90
7196;DHT22;3639;51.308;5.624;2022-10-31T06:14:03;11.10;99.90
7196;DHT22;3639;51.308;5.624;2022-10-31T06:16:28;11.10;99.90
7196;DHT22;3639;51.308;5.624;2022-10-31T06:18:54;11.10;99.90
7196;DHT22;3639;51.308;5.624;2022-10-31T06:21:19;11.10;99.90
7196;DHT22;3639;51.308;5.624;2022-10-31T06:23:45;11.10;99.90
7196;DHT22;3639;51.308;5.624;2022-10-31T06:26:11;11.00;99.90
7196;DHT22;3639;51.308;5.624;2022-10-31T06:28:36;11.00;99.90
7196;DHT22;3639;51.308;5.624;2022-10-31T06:31:02;11.00;99.90
7196;DHT22;3639;51.308;5.624;2022-10-31T06:33:27;11.00;99.90
7196;DHT22;3639;51.308;5.624;2022-10-31T06:35:53;11.00;99.90
7196;DHT22;3639;51.308;5.624;2022-10-31T06:38:19;11.00;99.90
7196;DHT22;3639;51.308;5.624;2022-10-31T06:40:44;11.00;99.90
7196;DHT22;3639;51.308;5.624;2022-10-31T06:43:10;10.90;99.90
7196;DHT22;3639;51.308;5.624;2022-10-31T06:45:37;10.90;99.90
7196;DHT22;3639;51.308;5.624;2022-10-31T06:48:03;10.90;99.90
7196;DHT22;3639;51.308;5.624;2022-10-31T06:50:29;10.90;99.90
7196;DHT22;3639;51.308;5.624;2022-10-31T06:52:57;10.90;99.90
7196;DHT22;3639;51.308;5.624;2022-10-31T06:55:24;10.90;99.90
7196;DHT22;3639;51.308;5.624;2022-10-31T06:57:59;11.00;99.90
7196;DHT22;3639;51.308;5.624;2022-10-31T07:00:27;11.00;99.90
7196;DHT22;3639;51.308;5.624;2022-10-31T07:02:55;11.00;99.90
7196;DHT22;3639;51.308;5.624;2022-10-31T07:05:21;11.00;99.90
7196;DHT22;3639;51.308;5.624;2022-10-31T07:07:46;11.00;99.90
7196;DHT22;3639;51.308;5.624;2022-10-31T07:10:12;11.00;99.90
7196;DHT22;3639;51.308;5.624;2022-10-31T07:12:38;11.00;99.90
7196;DHT22;3639;51.308;5.624;2022-10-31T07:15:04;11.00;99.90
7196;DHT22;3639;51.308;5.624;2022-10-31T07:17:29;11.00;99.90
7196;DHT22;3639;51.308;5.624;2022-10-31T07:19:56;11.00;99.90
7196;DHT22;3639;51.308;5.624;2022-10-31T07:22:21;11.00;99.90
7196;DHT22;3639;51.308;5.624;2022-10-31T07:24:47;11.00;99.90
7196;DHT22;3639;51.308;5.624;2022-10-31T07:27:12;11.00;99.90
7196;DHT22;3639;51.308;5.624;2022-10-31T07:29:38;11.10;99.90
7196;DHT22;3639;51.308;5.624;2022-10-31T07:32:04;11.10;99.90
7196;DHT22;3639;51.308;5.624;2022-10-31T07:34:29;11.00;99.90
7196;DHT22;3639;51.308;5.624;2022-10-31T07:36:55;11.00;99.90
7196;DHT22;3639;51.308;5.624;2022-10-31T07:39:20;11.10;99.90
7196;DHT22;3639;51.308;5.624;2022-10-31T07:41:46;11.10;99.90
7196;DHT22;3639;51.308;5.624;2022-10-31T07:44:12;11.10;99.90
7196;DHT22;3639;51.308;5.624;2022-10-31T07:46:37;11.10;99.90
7196;DHT22;3639;51.308;5.624;2022-10-31T07:49:03;11.20;99.90
7196;DHT22;3639;51.308;5.624;2022-10-31T07:51:29;11.20;99.90
7196;DHT22;3639;51.308;5.624;2022-10-31T07:53:54;11.20;99.90
7196;DHT22;3639;51.308;5.624;2022-10-31T07:56:20;11.30;99.90
7196;DHT22;3639;51.308;5.624;2022-10-31T07:58:46;11.40;99.90
7196;DHT22;3639;51.308;5.624;2022-10-31T08:01:11;11.40;99.90
7196;DHT22;3639;51.308;5.624;2022-10-31T08:03:37;11.50;99.90
7196;DHT22;3639;51.308;5.624;2022-10-31T08:06:03;11.50;99.90
7196;DHT22;3639;51.308;5.624;2022-10-31T08:08:29;11.60;99.90
7196;DHT22;3639;51.308;5.624;2022-10-31T08:10:54;11.70;99.90
7196;DHT22;3639;51.308;5.624;2022-10-31T08:13:20;11.70;99.90
7196;DHT22;3639;51.308;5.624;2022-10-31T08:15:46;11.80;99.90
7196;DHT22;3639;51.308;5.624;2022-10-31T08:18:16;11.90;99.90
7196;DHT22;3639;51.308;5.624;2022-10-31T08:20:42;11.90;99.90
7196;DHT22;3639;51.308;5.624;2022-10-31T08:23:09;11.90;99.90
7196;DHT22;3639;51.308;5.624;2022-10-31T08:25:35;11.90;99.90
7196;DHT22;3639;51.308;5.624;2022-10-31T08:28:01;11.90;99.90
7196;DHT22;3639;51.308;5.624;2022-10-31T08:30:29;11.90;99.90
7196;DHT22;3639;51.308;5.624;2022-10-31T08:33:09;12.00;99.90
7196;DHT22;3639;51.308;5.624;2022-10-31T08:35:34;12.00;99.90
7196;DHT22;3639;51.308;5.624;2022-10-31T08:38:01;12.10;99.90
7196;DHT22;3639;51.308;5.624;2022-10-31T08:40:28;12.10;99.90
7196;DHT22;3639;51.308;5.624;2022-10-31T08:45:27;12.30;99.90
7196;DHT22;3639;51.308;5.624;2022-10-31T08:47:57;12.40;99.90
7196;DHT22;3639;51.308;5.624;2022-10-31T08:50:23;12.50;99.90
7196;DHT22;3639;51.308;5.624;2022-10-31T08:52:49;12.50;99.90
7196;DHT22;3639;51.308;5.624;2022-10-31T08:55:15;12.60;99.90
7196;DHT22;3639;51.308;5.624;2022-10-31T08:57:40;12.70;99.90
7196;DHT22;3639;51.308;5.624;2022-10-31T09:00:06;12.80;99.90
7196;DHT22;3639;51.308;5.624;2022-10-31T09:02:32;13.00;99.90
7196;DHT22;3639;51.308;5.624;2022-10-31T09:04:58;13.20;99.90
7196;DHT22;3639;51.308;5.624;2022-10-31T09:07:23;13.30;99.90
7196;DHT22;3639;51.308;5.624;2022-10-31T09:09:49;13.40;99.90
7196;DHT22;3639;51.308;5.624;2022-10-31T09:12:14;13.50;99.90
7196;DHT22;3639;51.308;5.624;2022-10-31T09:14:40;13.50;99.90
7196;DHT22;3639;51.308;5.624;2022-10-31T09:17:06;13.50;99.90
7196;DHT22;3639;51.308;5.624;2022-10-31T09:19:31;13.60;99.90
7196;DHT22;3639;51.308;5.624;2022-10-31T09:21:57;13.70;99.90
7196;DHT22;3639;51.308;5.624;2022-10-31T09:24:22;13.70;99.90
7196;DHT22;3639;51.308;5.624;2022-10-31T09:26:48;13.80;99.90
7196;DHT22;3639;51.308;5.624;2022-10-31T09:29:14;13.90;99.90
7196;DHT22;3639;51.308;5.624;2022-10-31T09:31:39;14.00;99.90
7196;DHT22;3639;51.308;5.624;2022-10-31T09:34:05;14.00;99.90
7196;DHT22;3639;51.308;5.624;2022-10-31T09:36:30;14.10;99.90
7196;DHT22;3639;51.308;5.624;2022-10-31T09:38:56;14.10;99.90
7196;DHT22;3639;51.308;5.624;2022-10-31T09:41:50;14.20;99.90
7196;DHT22;3639;51.308;5.624;2022-10-31T09:44:33;14.20;99.90
7196;DHT22;3639;51.308;5.624;2022-10-31T09:47:17;14.30;99.90
7196;DHT22;3639;51.308;5.624;2022-10-31T09:50:23;14.40;99.90
7196;DHT22;3639;51.308;5.624;2022-10-31T09:53:02;14.40;99.90
7196;DHT22;3639;51.308;5.624;2022-10-31T09:55:37;14.40;99.90
7196;DHT22;3639;51.308;5.624;2022-10-31T09:58:04;14.50;99.90
7196;DHT22;3639;51.308;5.624;2022-10-31T10:00:31;14.60;99.90
7196;DHT22;3639;51.308;5.624;2022-10-31T10:06:17;14.80;99.90
7196;DHT22;3639;51.308;5.624;2022-10-31T10:08:44;14.90;99.90
7196;DHT22;3639;51.308;5.624;2022-10-31T10:11:51;15.00;99.90
7196;DHT22;3639;51.308;5.624;2022-10-31T10:14:35;15.10;99.90
7196;DHT22;3639;51.308;5.624;2022-10-31T10:22:42;15.10;99.90
7196;DHT22;3639;51.308;5.624;2022-10-31T10:25:21;15.10;99.90
7196;DHT22;3639;51.308;5.624;2022-10-31T10:28:08;15.10;99.90
7196;DHT22;3639;51.308;5.624;2022-10-31T10:30:42;15.20;99.90
7196;DHT22;3639;51.308;5.624;2022-10-31T10:33:12;15.20;99.90
7196;DHT22;3639;51.308;5.624;2022-10-31T10:35:43;15.20;99.90
7196;DHT22;3639;51.308;5.624;2022-10-31T10:40:37;15.30;99.90
7196;DHT22;3639;51.308;5.624;2022-10-31T10:43:22;15.40;99.90
7196;DHT22;3639;51.308;5.624;2022-10-31T10:46:23;15.50;99.90
7196;DHT22;3639;51.308;5.624;2022-10-31T11:00:00;15.90;99.90
7196;DHT22;3639;51.308;5.624;2022-10-31T11:02:30;16.10;99.90
7196;DHT22;3639;51.308;5.624;2022-10-31T11:05:00;16.10;99.90
7196;DHT22;3639;51.308;5.624;2022-10-31T11:07:38;16.20;99.90
7196;DHT22;3639;51.308;5.624;2022-10-31T11:10:05;16.30;99.90
7196;DHT22;3639;51.308;5.624;2022-10-31T11:12:39;16.40;99.90
7196;DHT22;3639;51.308;5.624;2022-10-31T11:15:24;16.60;99.90
7196;DHT22;3639;51.308;5.624;2022-10-31T11:17:53;16.60;99.90
7196;DHT22;3639;51.308;5.624;2022-10-31T11:22:47;16.70;99.90
7196;DHT22;3639;51.308;5.624;2022-10-31T11:25:24;16.80;99.90
7196;DHT22;3639;51.308;5.624;2022-10-31T11:28:08;16.90;99.90
7196;DHT22;3639;51.308;5.624;2022-10-31T11:30:47;17.10;99.90
7196;DHT22;3639;51.308;5.624;2022-10-31T11:33:21;17.20;99.90
7196;DHT22;3639;51.308;5.624;2022-10-31T11:35:48;17.20;99.90
7196;DHT22;3639;51.308;5.624;2022-10-31T11:38:18;17.10;99.90
7196;DHT22;3639;51.308;5.624;2022-10-31T11:41:08;17.10;99.90
7196;DHT22;3639;51.308;5.624;2022-10-31T11:43:35;17.00;99.90
7196;DHT22;3639;51.308;5.624;2022-10-31T11:46:09;16.90;99.90
7196;DHT22;3639;51.308;5.624;2022-10-31T11:48:36;16.90;99.90
7196;DHT22;3639;51.308;5.624;2022-10-31T11:51:04;16.90;99.90
7196;DHT22;3639;51.308;5.624;2022-10-31T11:53:32;16.90;99.90
7196;DHT22;3639;51.308;5.624;2022-10-31T11:58:36;17.00;99.90
7196;DHT22;3639;51.308;5.624;2022-10-31T12:01:02;17.00;99.90
7196;DHT22;3639;51.308;5.624;2022-10-31T12:03:33;17.00;99.90
7196;DHT22;3639;51.308;5.624;2022-10-31T12:06:34;17.10;99.90
7196;DHT22;3639;51.308;5.624;2022-10-31T12:09:00;17.20;99.90
7196;DHT22;3639;51.308;5.624;2022-10-31T12:14:51;17.30;99.90
7196;DHT22;3639;51.308;5.624;2022-10-31T12:20:12;17.40;99.90
7196;DHT22;3639;51.308;5.624;2022-10-31T12:33:17;17.70;99.90
7196;DHT22;3639;51.308;5.624;2022-10-31T12:44:09;17.40;99.90
7196;DHT22;3639;51.308;5.624;2022-10-31T13:02:50;16.90;99.90
7196;DHT22;3639;51.308;5.624;2022-10-31T13:10:43;17.10;99.90
7196;DHT22;3639;51.308;5.624;2022-10-31T13:13:17;17.10;99.90
7196;DHT22;3639;51.308;5.624;2022-10-31T13:15:53;17.10;99.90
7196;DHT22;3639;51.308;5.624;2022-10-31T13:19:00;17.00;99.90
7196;DHT22;3639;51.308;5.624;2022-10-31T13:21:33;17.00;99.90
7196;DHT22;3639;51.308;5.624;2022-10-31T13:24:03;17.00;99.90
7196;DHT22;3639;51.308;5.624;2022-10-31T13:26:42;17.10;99.90
7196;DHT22;3639;51.308;5.624;2022-10-31T13:29:20;17.10;99.90
7196;DHT22;3639;51.308;5.624;2022-10-31T13:31:47;17.10;99.90
7196;DHT22;3639;51.308;5.624;2022-10-31T13:34:38;17.10;99.90
7196;DHT22;3639;51.308;5.624;2022-10-31T13:45:19;17.30;99.90
7196;DHT22;3639;51.308;5.624;2022-10-31T13:50:28;17.20;99.90
7196;DHT22;3639;51.308;5.624;2022-10-31T13:53:45;17.30;99.90
7196;DHT22;3639;51.308;5.624;2022-10-31T13:56:16;17.20;99.90
7196;DHT22;3639;51.308;5.624;2022-10-31T14:01:21;17.30;99.90
7196;DHT22;3639;51.308;5.624;2022-10-31T14:06:50;17.20;99.90
7196;DHT22;3639;51.308;5.624;2022-10-31T14:09:32;17.30;99.90
7196;DHT22;3639;51.308;5.624;2022-10-31T14:12:22;17.40;99.90
7196;DHT22;3639;51.308;5.624;2022-10-31T14:14:52;17.50;99.90
7196;DHT22;3639;51.308;5.624;2022-10-31T14:17:25;17.60;99.90
7196;DHT22;3639;51.308;5.624;2022-10-31T14:22:37;17.60;99.90
7196;DHT22;3639;51.308;5.624;2022-10-31T14:25:33;17.60;99.90
7196;DHT22;3639;51.308;5.624;2022-10-31T14:28:01;17.60;99.90
7196;DHT22;3639;51.308;5.624;2022-10-31T14:30:28;17.60;99.90
7196;DHT22;3639;51.308;5.624;2022-10-31T14:33:02;17.50;99.90
7196;DHT22;3639;51.308;5.624;2022-10-31T14:35:46;17.40;99.90
7196;DHT22;3639;51.308;5.624;2022-10-31T14:41:29;17.30;99.90
7196;DHT22;3639;51.308;5.624;2022-10-31T14:44:37;17.20;99.90
7196;DHT22;3639;51.308;5.624;2022-10-31T14:52:23;17.20;99.90
7196;DHT22;3639;51.308;5.624;2022-10-31T14:54:53;17.30;99.90
7196;DHT22;3639;51.308;5.624;2022-10-31T14:57:32;17.40;99.90
7196;DHT22;3639;51.308;5.624;2022-10-31T15:00:03;17.40;99.90
7196;DHT22;3639;51.308;5.624;2022-10-31T15:02:40;17.40;99.90
7196;DHT22;3639;51.308;5.624;2022-10-31T15:05:10;17.40;99.90
7196;DHT22;3639;51.308;5.624;2022-10-31T15:07:36;17.40;99.90
7196;DHT22;3639;51.308;5.624;2022-10-31T15:12:50;17.40;99.90
7196;DHT22;3639;51.308;5.624;2022-10-31T15:15:24;17.40;99.90
7196;DHT22;3639;51.308;5.624;2022-10-31T15:17:56;17.40;99.90
7196;DHT22;3639;51.308;5.624;2022-10-31T15:20:26;17.20;99.90
7196;DHT22;3639;51.308;5.624;2022-10-31T15:22:54;17.20;99.90
7196;DHT22;3639;51.308;5.624;2022-10-31T15:25:24;17.10;99.90
7196;DHT22;3639;51.308;5.624;2022-10-31T15:27:51;17.00;99.90
7196;DHT22;3639;51.308;5.624;2022-10-31T15:30:20;16.90;99.90
7196;DHT22;3639;51.308;5.624;2022-10-31T15:32:47;16.90;99.90
7196;DHT22;3639;51.308;5.624;2022-10-31T15:35:24;16.90;99.90
7196;DHT22;3639;51.308;5.624;2022-10-31T15:37:54;16.80;99.90
7196;DHT22;3639;51.308;5.624;2022-10-31T15:40:24;16.80;99.90
7196;DHT22;3639;51.308;5.624;2022-10-31T15:43:01;16.80;99.90
7196;DHT22;3639;51.308;5.624;2022-10-31T15:45:28;16.80;99.90
7196;DHT22;3639;51.308;5.624;2022-10-31T15:47:57;16.70;99.90
7196;DHT22;3639;51.308;5.624;2022-10-31T15:50:31;16.60;99.90
7196;DHT22;3639;51.308;5.624;2022-10-31T15:52:58;16.60;99.90
7196;DHT22;3639;51.308;5.624;2022-10-31T15:55:27;16.50;99.90
7196;DHT22;3639;51.308;5.624;2022-10-31T15:58:00;16.50;99.90
7196;DHT22;3639;51.308;5.624;2022-10-31T16:00:30;16.40;99.90
7196;DHT22;3639;51.308;5.624;2022-10-31T16:10:56;16.20;99.90
7196;DHT22;3639;51.308;5.624;2022-10-31T16:13:30;16.20;99.90
7196;DHT22;3639;51.308;5.624;2022-10-31T16:16:01;16.20;99.90
7196;DHT22;3639;51.308;5.624;2022-10-31T16:18:28;16.10;99.90
7196;DHT22;3639;51.308;5.624;2022-10-31T16:20:56;16.10;99.90
7196;DHT22;3639;51.308;5.624;2022-10-31T16:23:24;16.10;99.90
7196;DHT22;3639;51.308;5.624;2022-10-31T16:25:51;16.20;99.90
7196;DHT22;3639;51.308;5.624;2022-10-31T16:28:19;16.20;99.90
7196;DHT22;3639;51.308;5.624;2022-10-31T16:30:46;16.20;99.90
7196;DHT22;3639;51.308;5.624;2022-10-31T16:33:35;16.20;99.90
7196;DHT22;3639;51.308;5.624;2022-10-31T16:38:55;16.20;99.90
7196;DHT22;3639;51.308;5.624;2022-10-31T16:41:21;16.20;99.90
7196;DHT22;3639;51.308;5.624;2022-10-31T16:43:48;16.10;99.90
7196;DHT22;3639;51.308;5.624;2022-10-31T16:46:27;16.10;99.90
7196;DHT22;3639;51.308;5.624;2022-10-31T16:48:53;16.10;99.90
7196;DHT22;3639;51.308;5.624;2022-10-31T16:51:19;16.20;99.90
7196;DHT22;3639;51.308;5.624;2022-10-31T16:53:45;16.10;99.90
7196;DHT22;3639;51.308;5.624;2022-10-31T16:56:21;16.10;99.90
7196;DHT22;3639;51.308;5.624;2022-10-31T16:58:49;16.10;99.90
7196;DHT22;3639;51.308;5.624;2022-10-31T17:01:15;16.20;99.90
7196;DHT22;3639;51.308;5.624;2022-10-31T17:03:41;16.10;99.90
7196;DHT22;3639;51.308;5.624;2022-10-31T17:06:11;16.10;99.90
7196;DHT22;3639;51.308;5.624;2022-10-31T17:08:37;16.10;99.90
7196;DHT22;3639;51.308;5.624;2022-10-31T17:11:03;16.00;99.90
7196;DHT22;3639;51.308;5.624;2022-10-31T17:13:31;16.00;99.90
7196;DHT22;3639;51.308;5.624;2022-10-31T17:16:00;15.90;99.90
7196;DHT22;3639;51.308;5.624;2022-10-31T17:18:26;16.00;99.90
7196;DHT22;3639;51.308;5.624;2022-10-31T17:20:59;15.90;99.90
7196;DHT22;3639;51.308;5.624;2022-10-31T17:23:26;15.80;99.90
7196;DHT22;3639;51.308;5.624;2022-10-31T17:25:53;15.70;99.90
7196;DHT22;3639;51.308;5.624;2022-10-31T17:28:19;15.70;99.90
7196;DHT22;3639;51.308;5.624;2022-10-31T17:30:45;15.60;99.90
7196;DHT22;3639;51.308;5.624;2022-10-31T17:33:15;15.50;99.90
7196;DHT22;3639;51.308;5.624;2022-10-31T17:35:42;15.40;99.90
7196;DHT22;3639;51.308;5.624;2022-10-31T17:38:09;15.40;99.90
7196;DHT22;3639;51.308;5.624;2022-10-31T17:40:37;15.30;99.90
7196;DHT22;3639;51.308;5.624;2022-10-31T17:43:03;15.20;99.90
7196;DHT22;3639;51.308;5.624;2022-10-31T17:45:28;15.20;99.90
7196;DHT22;3639;51.308;5.624;2022-10-31T17:47:54;15.10;99.90
7196;DHT22;3639;51.308;5.624;2022-10-31T17:50:22;15.10;99.90
7196;DHT22;3639;51.308;5.624;2022-10-31T17:52:48;15.00;99.90
7196;DHT22;3639;51.308;5.624;2022-10-31T17:55:14;15.00;99.90
7196;DHT22;3639;51.308;5.624;2022-10-31T17:57:40;14.90;99.90
7196;DHT22;3639;51.308;5.624;2022-10-31T18:00:11;14.90;99.90
7196;DHT22;3639;51.308;5.624;2022-10-31T18:02:36;14.90;99.90
7196;DHT22;3639;51.308;5.624;2022-10-31T18:05:03;14.80;99.90
7196;DHT22;3639;51.308;5.624;2022-10-31T18:07:33;14.80;99.90
7196;DHT22;3639;51.308;5.624;2022-10-31T18:09:59;14.80;99.90
7196;DHT22;3639;51.308;5.624;2022-10-31T18:12:25;14.80;99.90
7196;DHT22;3639;51.308;5.624;2022-10-31T18:14:51;14.80;99.90
7196;DHT22;3639;51.308;5.624;2022-10-31T18:17:18;14.80;99.90
7196;DHT22;3639;51.308;5.624;2022-10-31T18:19:44;14.70;99.90
7196;DHT22;3639;51.308;5.624;2022-10-31T18:22:10;14.70;99.90
7196;DHT22;3639;51.308;5.624;2022-10-31T18:24:36;14.70;99.90
7196;DHT22;3639;51.308;5.624;2022-10-31T18:27:02;14.70;99.90
7196;DHT22;3639;51.308;5.624;2022-10-31T18:29:28;14.70;99.90
7196;DHT22;3639;51.308;5.624;2022-10-31T18:31:53;14.70;99.90
7196;DHT22;3639;51.308;5.624;2022-10-31T18:34:19;14.70;99.90
7196;DHT22;3639;51.308;5.624;2022-10-31T18:36:45;14.70;99.90
7196;DHT22;3639;51.308;5.624;2022-10-31T18:39:11;14.60;99.90
7196;DHT22;3639;51.308;5.624;2022-10-31T18:41:38;14.60;99.90
7196;DHT22;3639;51.308;5.624;2022-10-31T18:44:05;14.60;99.90
7196;DHT22;3639;51.308;5.624;2022-10-31T18:46:31;14.60;99.90